Time,TemperatureF,DewpointF,PressureIn,WindDirection,WindDirectionDegrees,WindSpeedMPH,WindSpeedGustMPH,Humidity,HourlyPrecipIn,Conditions,Clouds,dailyrainin,SoftwareType,DateUTC
2013-05-10 00:13:00,58.1,57.0,29.90,North,5,6.0,8.0,96,0.00,,,0.00,weatherlink.com 1.10,2013-05-10 04:13:00,
2013-05-10 00:28:00,58.1,57.0,29.90,NNW,335,4.0,7.0,96,0.00,,,0.00,weatherlink.com 1.10,2013-05-10 04:28:00,
2013-05-10 00:43:00,58.3,57.0,29.90,NNW,335,6.0,7.0,96,0.00,,,0.00,weatherlink.com 1.10,2013-05-10 04:43:00,
2013-05-10 00:58:00,58.4,57.0,29.90,NNW,328,4.0,9.0,96,0.00,,,0.00,weatherlink.com 1.10,2013-05-10 04:58:00,
2013-05-10 01:13:00,58.5,57.0,29.90,NNW,327,5.0,11.0,95,0.00,,,0.00,weatherlink.com 1.10,2013-05-10 05:13:00,
2013-05-10 01:28:00,58.5,57.0,29.90,NNW,345,6.0,10.0,95,0.00,,,0.00,weatherlink.com 1.10,2013-05-10 05:28:00,
2013-05-10 01:43:00,58.3,57.0,29.90,NNW,347,5.0,11.0,95,0.00,,,0.00,weatherlink.com 1.10,2013-05-10 05:43:00,
2013-05-10 01:58:00,58.3,57.0,29.90,NNW,344,2.0,9.0,95,0.00,,,0.00,weatherlink.com 1.10,2013-05-10 05:58:00,
2013-05-10 02:13:00,58.3,57.0,29.90,NW,325,4.0,10.0,95,0.00,,,0.00,weatherlink.com 1.10,2013-05-10 06:13:00,
2013-05-10 02:28:00,58.2,57.0,29.91,NNW,331,8.0,13.0,96,0.00,,,0.00,weatherlink.com 1.10,2013-05-10 06:28:00,
2013-05-10 02:43:00,58.2,57.0,29.92,NNW,342,5.0,10.0,96,0.00,,,0.00,weatherlink.com 1.10,2013-05-10 06:43:00,
2013-05-10 02:58:00,58.2,57.0,29.91,NNW,342,0.0,5.0,95,0.00,,,0.00,weatherlink.com 1.10,2013-05-10 06:58:00,
2013-05-10 03:13:00,58.4,57.0,29.91,NNW,342,0.0,3.0,96,0.00,,,0.00,weatherlink.com 1.10,2013-05-10 07:13:00,
2013-05-10 03:28:00,58.5,57.0,29.91,North,350,4.0,5.0,94,0.00,,,0.00,weatherlink.com 1.10,2013-05-10 07:28:00,
2013-05-10 03:43:00,58.4,57.0,29.91,North,350,0.0,5.0,94,0.00,,,0.00,weatherlink.com 1.10,2013-05-10 07:43:00,
2013-05-10 03:58:00,58.0,56.0,29.91,North,5,1.0,5.0,94,0.00,,,0.00,weatherlink.com 1.10,2013-05-10 07:58:00,
2013-05-10 04:13:00,58.0,56.0,29.91,North,355,2.0,7.0,94,0.00,,,0.00,weatherlink.com 1.10,2013-05-10 08:13:00,
2013-05-10 04:28:00,57.4,56.0,29.91,NNW,329,3.0,5.0,95,0.00,,,0.00,weatherlink.com 1.10,2013-05-10 08:28:00,
2013-05-10 04:44:00,57.3,56.0,29.92,NNW,329,2.0,5.0,96,0.00,,,0.00,weatherlink.com 1.10,2013-05-10 08:44:00,
2013-05-10 04:59:00,57.2,56.0,29.92,NW,323,2.0,7.0,96,0.00,,,0.00,weatherlink.com 1.10,2013-05-10 08:59:00,
2013-05-10 05:14:00,56.6,56.0,29.93,NNW,328,4.0,9.0,97,0.00,,,0.00,weatherlink.com 1.10,2013-05-10 09:14:00,
2013-05-10 05:29:00,56.6,56.0,29.93,NW,324,4.0,6.0,97,0.00,,,0.00,weatherlink.com 1.10,2013-05-10 09:29:00,
2013-05-10 05:44:00,56.4,56.0,29.93,NW,317,4.0,8.0,97,0.00,,,0.00,weatherlink.com 1.10,2013-05-10 09:44:00,
2013-05-10 05:59:00,56.3,56.0,29.93,NW,314,6.0,6.0,97,0.00,,,0.00,weatherlink.com 1.10,2013-05-10 09:59:00,
2013-05-10 06:14:00,56.5,56.0,29.93,NW,314,0.0,2.0,98,0.00,,,0.00,weatherlink.com 1.10,2013-05-10 10:14:00,
2013-05-10 06:29:00,56.4,56.0,29.95,NW,314,0.0,3.0,97,0.00,,,0.00,weatherlink.com 1.10,2013-05-10 10:29:00,
2013-05-10 06:44:00,56.4,56.0,29.94,NW,307,4.0,5.0,97,0.00,,,0.00,weatherlink.com 1.10,2013-05-10 10:44:00,
2013-05-10 06:59:00,56.4,56.0,29.94,WNW,300,7.0,7.0,98,0.00,,,0.00,weatherlink.com 1.10,2013-05-10 10:59:00,
2013-05-10 07:14:00,56.7,56.0,29.95,NW,315,1.0,6.0,97,0.00,,,0.00,weatherlink.com 1.10,2013-05-10 11:14:00,
2013-05-10 07:29:00,56.8,56.0,29.96,NW,311,0.0,6.0,97,0.00,,,0.00,weatherlink.com 1.10,2013-05-10 11:29:00,
2013-05-10 07:44:00,57.1,56.0,29.95,WNW,299,0.0,7.0,96,0.00,,,0.00,weatherlink.com 1.10,2013-05-10 11:44:00,
2013-05-10 07:59:00,57.6,56.0,29.96,NW,307,0.0,6.0,95,0.00,,,0.00,weatherlink.com 1.10,2013-05-10 11:59:00,
2013-05-10 08:14:00,58.4,57.0,29.96,NW,326,8.0,9.0,94,0.00,,,0.00,weatherlink.com 1.10,2013-05-10 12:14:00,
2013-05-10 08:29:00,58.7,56.0,29.96,NW,309,3.0,8.0,92,0.00,,,0.00,weatherlink.com 1.10,2013-05-10 12:29:00,
2013-05-10 08:44:00,59.8,57.0,29.96,WNW,297,5.0,6.0,91,0.00,,,0.00,weatherlink.com 1.10,2013-05-10 12:44:00,
2013-05-10 08:59:00,60.9,58.0,29.96,NNW,331,1.0,7.0,89,0.00,,,0.00,weatherlink.com 1.10,2013-05-10 12:59:00,
2013-05-10 09:14:00,62.3,58.0,29.96,WNW,302,0.0,7.0,85,0.01,,,0.01,weatherlink.com 1.10,2013-05-10 13:14:00,
2013-05-10 09:29:00,63.2,58.0,29.96,NNW,333,0.0,6.0,84,0.01,,,0.01,weatherlink.com 1.10,2013-05-10 13:29:00,
2013-05-10 09:44:00,64.6,58.0,29.96,NNW,348,0.0,8.0,79,0.01,,,0.01,weatherlink.com 1.10,2013-05-10 13:44:00,
2013-05-10 09:59:00,65.7,59.0,29.96,NNW,337,4.0,8.0,78,0.01,,,0.01,weatherlink.com 1.10,2013-05-10 13:59:00,
2013-05-10 10:14:00,66.8,58.0,29.96,NNW,345,7.0,9.0,73,0.00,,,0.01,weatherlink.com 1.10,2013-05-10 14:14:00,
2013-05-10 10:29:00,67.4,58.0,29.95,NW,325,0.0,10.0,71,0.00,,,0.01,weatherlink.com 1.10,2013-05-10 14:29:00,
2013-05-10 10:44:00,68.0,59.0,29.96,NNE,29,6.0,9.0,72,0.00,,,0.01,weatherlink.com 1.10,2013-05-10 14:44:00,
2013-05-10 10:59:00,68.8,58.0,29.96,NNW,333,7.0,8.0,69,0.00,,,0.01,weatherlink.com 1.10,2013-05-10 14:59:00,
2013-05-10 11:14:00,69.8,58.0,29.96,North,355,7.0,9.0,66,0.00,,,0.01,weatherlink.com 1.10,2013-05-10 15:14:00,
2013-05-10 11:29:00,70.7,58.0,29.96,NNE,22,0.0,6.0,65,0.00,,,0.01,weatherlink.com 1.10,2013-05-10 15:29:00,
2013-05-10 11:45:00,73.4,60.0,29.96,SE,130,1.0,7.0,63,0.00,,,0.01,weatherlink.com 1.10,2013-05-10 15:45:00,
2013-05-10 12:00:00,73.6,60.0,29.95,West,263,1.0,5.0,62,0.00,,,0.01,weatherlink.com 1.10,2013-05-10 16:00:00,
2013-05-10 12:15:00,72.9,56.0,29.95,WNW,299,4.0,8.0,55,0.00,,,0.01,weatherlink.com 1.10,2013-05-10 16:15:00,
2013-05-10 12:30:00,73.5,60.0,29.95,SE,131,4.0,10.0,62,0.00,,,0.01,weatherlink.com 1.10,2013-05-10 16:30:00,
2013-05-10 12:45:00,72.4,59.0,29.95,SSE,153,6.0,9.0,64,0.00,,,0.01,weatherlink.com 1.10,2013-05-10 16:45:00,
2013-05-10 13:00:00,73.3,59.0,29.95,ESE,119,11.0,11.0,62,0.00,,,0.01,weatherlink.com 1.10,2013-05-10 17:00:00,
2013-05-10 13:15:00,71.5,59.0,29.94,SE,130,6.0,12.0,64,0.00,,,0.01,weatherlink.com 1.10,2013-05-10 17:15:00,
2013-05-10 13:30:00,68.8,59.0,29.94,ESE,123,7.0,11.0,70,0.00,,,0.01,weatherlink.com 1.10,2013-05-10 17:30:00,
2013-05-10 13:45:00,68.8,59.0,29.94,SE,130,3.0,9.0,71,0.00,,,0.01,weatherlink.com 1.10,2013-05-10 17:45:00,
2013-05-10 14:00:00,70.3,59.0,29.94,SE,130,5.0,10.0,67,0.00,,,0.01,weatherlink.com 1.10,2013-05-10 18:00:00,
2013-05-10 14:15:00,69.8,58.0,29.94,ESE,109,9.0,12.0,67,0.00,,,0.01,weatherlink.com 1.10,2013-05-10 18:15:00,
2013-05-10 14:30:00,69.3,59.0,29.94,ESE,109,3.0,10.0,69,0.00,,,0.01,weatherlink.com 1.10,2013-05-10 18:30:00,
2013-05-10 14:45:00,68.1,58.0,29.94,SE,135,5.0,12.0,70,0.00,,,0.01,weatherlink.com 1.10,2013-05-10 18:45:00,
2013-05-10 15:00:00,66.4,58.0,29.94,SE,130,6.0,11.0,73,0.00,,,0.01,weatherlink.com 1.10,2013-05-10 19:00:00,
2013-05-10 15:15:00,66.2,58.0,29.94,SE,133,4.0,12.0,75,0.00,,,0.01,weatherlink.com 1.10,2013-05-10 19:15:00,
2013-05-10 15:30:00,68.0,59.0,29.94,ESE,118,7.0,7.0,72,0.00,,,0.01,weatherlink.com 1.10,2013-05-10 19:30:00,
2013-05-10 15:45:00,68.5,58.0,29.94,SE,130,3.0,9.0,70,0.00,,,0.01,weatherlink.com 1.10,2013-05-10 19:45:00,
2013-05-10 16:00:00,68.0,58.0,29.94,ESE,111,0.0,9.0,71,0.00,,,0.01,weatherlink.com 1.10,2013-05-10 20:00:00,
2013-05-10 16:15:00,68.6,58.0,29.93,ESE,109,0.0,8.0,70,0.00,,,0.01,weatherlink.com 1.10,2013-05-10 20:15:00,
2013-05-10 16:30:00,69.0,58.0,29.93,ESE,121,2.0,8.0,69,0.00,,,0.01,weatherlink.com 1.10,2013-05-10 20:30:00,
2013-05-10 16:45:00,69.4,58.0,29.93,SE,135,2.0,7.0,68,0.00,,,0.01,weatherlink.com 1.10,2013-05-10 20:45:00,
2013-05-10 17:01:00,69.3,59.0,29.93,SE,135,3.0,7.0,69,0.00,,,0.01,weatherlink.com 1.10,2013-05-10 21:01:00,
2013-05-10 17:15:00,70.1,59.0,29.92,SE,138,4.0,7.0,67,0.00,,,0.01,weatherlink.com 1.10,2013-05-10 21:15:00,
2013-05-10 17:30:00,70.8,59.0,29.93,SE,124,1.0,8.0,66,0.00,,,0.01,weatherlink.com 1.10,2013-05-10 21:30:00,
2013-05-10 17:45:00,70.2,59.0,29.92,SE,137,4.0,9.0,67,0.00,,,0.01,weatherlink.com 1.10,2013-05-10 21:45:00,
2013-05-10 18:00:00,69.5,58.0,29.92,SE,127,4.0,6.0,68,0.00,,,0.01,weatherlink.com 1.10,2013-05-10 22:00:00,
2013-05-10 18:15:00,70.4,59.0,29.91,ESE,110,5.0,8.0,68,0.00,,,0.01,weatherlink.com 1.10,2013-05-10 22:15:00,
2013-05-10 18:30:00,70.2,60.0,29.91,SSE,149,1.0,7.0,69,0.00,,,0.01,weatherlink.com 1.10,2013-05-10 22:30:00,
2013-05-10 18:45:00,71.0,60.0,29.91,SSE,149,0.0,3.0,68,0.00,,,0.01,weatherlink.com 1.10,2013-05-10 22:45:00,
2013-05-10 19:00:00,71.1,60.0,29.91,SE,137,0.0,5.0,67,0.00,,,0.01,weatherlink.com 1.10,2013-05-10 23:00:00,
2013-05-10 19:15:00,70.1,59.0,29.92,SE,137,4.0,4.0,69,0.00,,,0.01,weatherlink.com 1.10,2013-05-10 23:15:00,
2013-05-10 19:30:00,69.6,59.0,29.93,SE,137,0.0,1.0,70,0.00,,,0.01,weatherlink.com 1.10,2013-05-10 23:30:00,
2013-05-10 19:45:00,69.4,59.0,29.93,SE,137,3.0,3.0,70,0.00,,,0.01,weatherlink.com 1.10,2013-05-10 23:45:00,
2013-05-10 20:00:00,69.2,59.0,29.93,SE,137,0.0,1.0,70,0.00,,,0.01,weatherlink.com 1.10,2013-05-11 00:00:00,
2013-05-10 20:15:00,70.1,57.0,29.93,South,172,0.0,2.0,64,0.00,,,0.01,weatherlink.com 1.10,2013-05-11 00:15:00,
2013-05-10 20:30:00,71.5,57.0,29.93,WSW,252,0.0,5.0,60,0.00,,,0.01,weatherlink.com 1.10,2013-05-11 00:30:00,
2013-05-10 20:45:00,71.7,56.0,29.93,West,279,6.0,9.0,58,0.00,,,0.01,weatherlink.com 1.10,2013-05-11 00:45:00,
2013-05-10 21:00:00,71.3,56.0,29.93,West,260,1.0,12.0,59,0.00,,,0.01,weatherlink.com 1.10,2013-05-11 01:00:00,
2013-05-10 21:15:00,70.6,56.0,29.93,WSW,246,4.0,10.0,60,0.00,,,0.01,weatherlink.com 1.10,2013-05-11 01:15:00,
2013-05-10 21:30:00,70.1,56.0,29.93,West,261,6.0,10.0,62,0.00,,,0.01,weatherlink.com 1.10,2013-05-11 01:30:00,
2013-05-10 21:45:00,69.5,56.0,29.93,West,279,7.0,12.0,63,0.00,,,0.01,weatherlink.com 1.10,2013-05-11 01:45:00,
2013-05-10 22:00:00,69.0,56.0,29.93,West,274,6.0,11.0,64,0.00,,,0.01,weatherlink.com 1.10,2013-05-11 02:00:00,
2013-05-10 22:15:00,68.8,56.0,29.93,WSW,242,4.0,12.0,65,0.00,,,0.01,weatherlink.com 1.10,2013-05-11 02:15:00,
2013-05-10 22:30:00,68.3,56.0,29.93,West,271,4.0,13.0,65,0.00,,,0.01,weatherlink.com 1.10,2013-05-11 02:30:00,
2013-05-10 22:45:00,68.0,56.0,29.93,West,278,7.0,13.0,66,0.00,,,0.01,weatherlink.com 1.10,2013-05-11 02:45:00,
2013-05-10 23:00:00,67.6,56.0,29.92,West,277,7.0,12.0,66,0.00,,,0.01,weatherlink.com 1.10,2013-05-11 03:00:00,
2013-05-10 23:15:00,67.2,55.0,29.92,West,269,4.0,11.0,66,0.00,,,0.01,weatherlink.com 1.10,2013-05-11 03:15:00,
2013-05-10 23:30:00,66.9,56.0,29.92,West,265,4.0,10.0,67,0.00,,,0.01,weatherlink.com 1.10,2013-05-11 03:30:00,
2013-05-10 23:45:00,66.7,55.0,29.93,West,262,8.0,12.0,67,0.00,,,0.01,weatherlink.com 1.10,2013-05-11 03:45:00,